»·PEaware :: SWA278 KMDW-KATL

SWA278 :: KMDW-KATL

FLIGHT INFORMATION

Flight Status: Arrived
Operator:
Southwest Airlines
More flights by this operator :: More flights under this callsign
Pilot: Anonymous 14085 (14085)
Aircraft: BOEING 737-800
(B738)
More flights by this aircraft type
Origin: KMDW Chicago-Midway
United States
Destination: KATL Hartsfield-Jackson Atlanta
United States
More flights between these airports :: More routes between these airports
Route: CMSKY CARYN CYBIL PXV BNA NEWBB IHAVE KNGGG DRMMM1
File this flight plan on PilotEdge
Remarks:
Altitude:
(Current/Filed)
39,000ft
Speed:
(Current/Filed)
450kts
Departed: 06-Jun-17 04:31 PM
Arrived: 06-Jun-17 05:50 PM
Distance/Time
Traveled:
513nm/1:19
Distance/Time
To Go:
Arrived

Flight Plot

Page will automatically refresh every two minutes.

Flight plan parsing failed; only flown route is shown


Map Options




Map Legend


Flown Route
Filed Route
Departure Airport
Arrival Airport
Navaid (VOR, NDB)
Fix

Horizontal Profiles

Position Reports

Time Latitude Longitude Heading Altitude Ground
Speed
06-Jun-17 16:04 41.788099 -87.744548 137 615ft 0kts
06-Jun-17 16:05 41.788099 -87.744548 137 615ft 0kts
06-Jun-17 16:06 41.788099 -87.744548 137 615ft 0kts
06-Jun-17 16:09 41.788091 -87.744545 137 615ft 0kts
06-Jun-17 16:10 41.788091 -87.744545 137 615ft 0kts
06-Jun-17 16:11 41.788091 -87.744545 137 615ft 0kts
06-Jun-17 16:12 41.788091 -87.744545 137 615ft 0kts
06-Jun-17 16:13 41.788091 -87.744545 137 615ft 0kts
06-Jun-17 16:14 41.788091 -87.744545 137 615ft 0kts
06-Jun-17 16:15 41.788091 -87.744545 137 615ft 0kts
06-Jun-17 16:16 41.788091 -87.744545 137 615ft 0kts
06-Jun-17 16:17 41.788091 -87.744545 137 615ft 0kts
06-Jun-17 16:18 41.788091 -87.744545 137 615ft 0kts
06-Jun-17 16:19 41.788091 -87.744545 137 615ft 0kts
06-Jun-17 16:20 41.788091 -87.744545 137 615ft 0kts
06-Jun-17 16:21 41.788091 -87.744545 137 615ft 0kts
06-Jun-17 16:22 41.788091 -87.744545 137 615ft 0kts
06-Jun-17 16:23 41.788091 -87.744545 137 615ft 0kts
06-Jun-17 16:24 41.788091 -87.744545 137 615ft 0kts
06-Jun-17 16:25 41.788092 -87.744545 137 615ft 0kts
06-Jun-17 16:26 41.788444 -87.745086 205 615ft 8kts
06-Jun-17 16:27 41.787685 -87.746739 240 615ft 5kts
06-Jun-17 16:28 41.784743 -87.745987 133 615ft 14kts
06-Jun-17 16:29 41.782608 -87.743655 172 615ft 19kts
06-Jun-17 16:30 41.780299 -87.745253 313 615ft 5kts
06-Jun-17 16:31 41.780303 -87.745260 313 615ft 0kts
06-Jun-17 16:32 41.780340 -87.745312 313 615ft 0kts
06-Jun-17 16:33 41.785583 -87.752681 316 622ft 139kts
06-Jun-17 16:34 41.817970 -87.805709 317 2886ft 234kts
06-Jun-17 16:35 41.829587 -87.892443 239 6107ft 282kts
06-Jun-17 16:36 41.762193 -87.927018 172 10474ft 276kts
06-Jun-17 16:37 41.682520 -87.915968 171 13047ft 336kts
06-Jun-17 16:38 41.585554 -87.900653 173 16386ft 370kts
06-Jun-17 16:39 41.482411 -87.886081 174 19843ft 388kts
06-Jun-17 16:40 41.374240 -87.880994 184 22804ft 408kts
06-Jun-17 16:41 41.260303 -87.891284 184 25507ft 427kts
06-Jun-17 16:42 41.141984 -87.889179 180 28367ft 432kts
06-Jun-17 16:43 41.024634 -87.885291 181 31040ft 428kts
06-Jun-17 16:44 40.908005 -87.881752 181 33283ft 425kts
06-Jun-17 16:45 40.796102 -87.878538 182 35121ft 421kts
06-Jun-17 16:46 40.680652 -87.875281 182 36753ft 419kts
06-Jun-17 16:47 40.566654 -87.871906 182 38051ft 419kts
06-Jun-17 16:48 40.451411 -87.868490 181 39039ft 422kts
06-Jun-17 16:49 40.333139 -87.865031 181 39060ft 446kts
06-Jun-17 16:50 40.207890 -87.859759 180 39066ft 472kts
06-Jun-17 16:51 40.075843 -87.853873 180 39045ft 488kts
06-Jun-17 16:52 39.942051 -87.847998 180 39045ft 496kts
06-Jun-17 16:53 39.808629 -87.842145 180 39020ft 493kts
06-Jun-17 16:54 39.674244 -87.836303 180 39020ft 493kts
06-Jun-17 16:55 39.539241 -87.830427 180 39021ft 493kts
06-Jun-17 16:56 39.404350 -87.824631 180 39023ft 493kts
06-Jun-17 16:57 39.270250 -87.818872 180 39024ft 493kts
06-Jun-17 16:58 39.136105 -87.813128 180 39000ft 493kts
06-Jun-17 16:59 39.000776 -87.807334 180 39000ft 493kts
06-Jun-17 17:00 38.867857 -87.801705 180 38992ft 493kts
06-Jun-17 17:01 38.733980 -87.796043 180 38993ft 493kts
06-Jun-17 17:02 38.599980 -87.790392 180 38994ft 493kts
06-Jun-17 17:03 38.465289 -87.784714 181 38996ft 492kts
06-Jun-17 17:04 38.331183 -87.779117 180 38996ft 492kts
06-Jun-17 17:05 38.197145 -87.773529 180 38998ft 492kts
06-Jun-17 17:06 38.067846 -87.768155 180 38972ft 492kts
06-Jun-17 17:07 37.934225 -87.757331 166 38956ft 496kts
06-Jun-17 17:08 37.818230 -87.694536 155 38969ft 499kts
06-Jun-17 17:09 37.695912 -87.619404 154 38968ft 499kts
06-Jun-17 17:10 37.572947 -87.544047 154 38969ft 499kts
06-Jun-17 17:11 37.450061 -87.469053 155 38970ft 499kts
06-Jun-17 17:12 37.327029 -87.394299 155 38945ft 499kts
06-Jun-17 17:13 37.206559 -87.321324 155 38941ft 499kts
06-Jun-17 17:14 37.093408 -87.253060 155 38969ft 499kts
06-Jun-17 17:15 36.970229 -87.178959 155 38970ft 499kts
06-Jun-17 17:16 36.848853 -87.106254 155 38964ft 499kts
06-Jun-17 17:17 36.728806 -87.034572 155 38938ft 498kts
06-Jun-17 17:18 36.605073 -86.960950 155 38939ft 499kts
06-Jun-17 17:19 36.482596 -86.888291 155 38940ft 498kts
06-Jun-17 17:20 36.358848 -86.815211 155 38942ft 498kts
06-Jun-17 17:21 36.236234 -86.743033 155 38943ft 498kts
06-Jun-17 17:22 36.115698 -86.664324 147 38979ft 500kts
06-Jun-17 17:23 35.999397 -86.570051 146 39489ft 515kts
06-Jun-17 17:24 35.882439 -86.474689 146 40150ft 519kts
06-Jun-17 17:25 35.767144 -86.380685 146 40707ft 517kts
06-Jun-17 17:26 35.660887 -86.294283 146 41148ft 516kts
06-Jun-17 17:27 35.544446 -86.199903 146 41525ft 516kts
06-Jun-17 17:28 35.427012 -86.105157 146 41008ft 515kts
06-Jun-17 17:29 35.308067 -86.009544 146 39983ft 521kts
06-Jun-17 17:30 35.189151 -85.914344 146 38090ft 521kts
06-Jun-17 17:31 35.072212 -85.820853 146 35795ft 499kts
06-Jun-17 17:32 34.956645 -85.728719 147 33147ft 508kts
06-Jun-17 17:33 34.857779 -85.651095 146 30612ft 488kts
06-Jun-17 17:34 34.749705 -85.566533 145 27902ft 462kts
06-Jun-17 17:35 34.646404 -85.483892 147 25448ft 439kts
06-Jun-17 17:36 34.550494 -85.405444 149 23451ft 411kts
06-Jun-17 17:37 34.459377 -85.333833 150 21438ft 391kts
06-Jun-17 17:38 34.374101 -85.267394 150 19477ft 377kts
06-Jun-17 17:39 34.289357 -85.201635 150 17650ft 361kts
06-Jun-17 17:40 34.207666 -85.138539 150 15844ft 350kts
06-Jun-17 17:41 34.127623 -85.076890 150 14054ft 342kts
06-Jun-17 17:42 34.049067 -85.016545 150 12395ft 332kts
06-Jun-17 17:43 33.973595 -84.958558 149 10893ft 323kts
06-Jun-17 17:44 33.899944 -84.901922 149 9423ft 316kts
06-Jun-17 17:45 33.831645 -84.846723 133 7959ft 314kts
06-Jun-17 17:46 33.779608 -84.764861 127 6392ft 312kts
06-Jun-17 17:47 33.729154 -84.682795 127 4767ft 304kts
06-Jun-17 17:48 33.682026 -84.607598 126 3479ft 248kts
06-Jun-17 17:49 33.650835 -84.550742 102 2444ft 178kts
06-Jun-17 17:50 33.649549 -84.499442 89 1939ft 147kts
06-Jun-17 17:51 33.646739 -84.451063 88 1275ft 148kts
06-Jun-17 17:52 33.646770 -84.420358 89 973ft 17kts
06-Jun-17 17:53 33.645990 -84.415559 150 973ft 16kts
06-Jun-17 17:54 33.645398 -84.418607 268 973ft 15kts
06-Jun-17 17:55 33.642747 -84.421952 236 973ft 21kts
06-Jun-17 17:56 33.641077 -84.423848 179 973ft 0kts
06-Jun-17 17:57 33.646783 -84.444914 89 1164ft 149kts
06-Jun-17 17:58 33.641077 -84.423848 179 973ft 0kts
06-Jun-17 17:59 33.641077 -84.423848 179 973ft 0kts
06-Jun-17 18:00 33.646755 -84.433341 88 985ft 146kts
06-Jun-17 18:01 33.641077 -84.423848 179 973ft 0kts
06-Jun-17 18:02 33.641077 -84.423848 179 973ft 0kts

Navigation Log

Ident Type
Flight plan parsing failed, navigation log unavailable